createdAt,value
2022-10-17T00:00:17.003Z,8.92
2022-10-17T00:05:18.992Z,8.91
2022-10-17T00:10:21.020Z,8.88
2022-10-17T00:15:23.255Z,8.91
2022-10-17T00:20:25.235Z,8.88
2022-10-17T00:25:27.324Z,8.89
2022-10-17T00:30:29.645Z,8.90
2022-10-17T00:35:31.978Z,8.87
2022-10-17T00:40:33.938Z,8.85
2022-10-17T00:45:35.880Z,8.84
2022-10-17T00:50:39.948Z,8.82
2022-10-17T00:55:53.097Z,8.81
2022-10-17T01:00:55.226Z,8.77
2022-10-17T01:05:57.140Z,8.78
2022-10-17T01:11:05.293Z,8.73
2022-10-17T01:16:07.153Z,8.70
2022-10-17T01:21:15.890Z,8.70
2022-10-17T01:26:30.019Z,8.63
2022-10-17T01:31:41.375Z,8.58
2022-10-17T01:36:51.294Z,8.56
2022-10-17T01:42:02.439Z,8.57
2022-10-17T01:47:10.241Z,8.59
2022-10-17T01:52:17.833Z,8.59
2022-10-17T01:57:28.057Z,8.57
2022-10-17T02:02:31.215Z,8.56
2022-10-17T02:07:33.167Z,8.60
2022-10-17T02:12:45.770Z,8.59
2022-10-17T02:18:23.393Z,8.58
2022-10-17T02:23:28.157Z,8.54
2022-10-17T02:28:47.345Z,8.55
2022-10-17T02:33:52.806Z,8.51
2022-10-17T02:38:55.336Z,8.43
2022-10-17T02:44:00.240Z,8.36
2022-10-17T02:49:04.264Z,8.38
2022-10-17T02:54:26.384Z,8.34
2022-10-17T02:59:30.500Z,8.27
2022-10-17T03:04:32.799Z,8.24
2022-10-17T03:09:34.718Z,8.23
2022-10-17T03:14:36.702Z,8.24
2022-10-17T03:19:39.107Z,8.27
2022-10-17T03:24:41.081Z,8.26
2022-10-17T03:29:43.273Z,8.28
2022-10-17T03:34:45.622Z,8.26
2022-10-17T03:39:47.740Z,8.32
2022-10-17T03:44:50.677Z,8.34
2022-10-17T03:49:53.856Z,8.44
2022-10-17T03:54:56.829Z,8.50
2022-10-17T03:59:58.911Z,8.50
2022-10-17T04:05:01.330Z,8.48
2022-10-17T04:10:05.473Z,8.49
2022-10-17T04:15:08.324Z,8.50
2022-10-17T04:20:11.116Z,8.50
2022-10-17T04:25:13.333Z,8.49
2022-10-17T04:30:18.987Z,8.46
2022-10-17T04:35:21.451Z,8.47
2022-10-17T04:40:29.300Z,8.53
2022-10-17T04:45:31.350Z,8.57
2022-10-17T04:50:37.662Z,8.62
2022-10-17T04:55:59.817Z,8.68
2022-10-17T05:01:09.275Z,8.77
2022-10-17T05:06:16.805Z,8.81
2022-10-17T05:11:25.069Z,8.86
2022-10-17T05:16:27.938Z,8.79
2022-10-17T05:26:39.904Z,8.74
2022-10-17T05:31:42.074Z,8.76
2022-10-17T05:36:44.020Z,8.83
2022-10-17T05:41:46.799Z,8.94
2022-10-17T05:46:49.804Z,9.06
2022-10-17T05:51:51.903Z,9.27
2022-10-17T05:56:54.902Z,9.48
2022-10-17T06:02:00.378Z,9.61
2022-10-17T06:07:02.513Z,9.72
2022-10-17T06:12:06.817Z,9.82
2022-10-17T06:17:13.419Z,9.94
2022-10-17T06:22:18.505Z,9.97
2022-10-17T06:27:21.809Z,9.98
2022-10-17T06:32:24.018Z,9.91
2022-10-17T06:37:26.558Z,9.88
2022-10-17T06:42:29.429Z,9.89
2022-10-17T06:47:42.898Z,9.88
2022-10-17T06:53:05.036Z,9.85
2022-10-17T06:58:25.235Z,9.95
2022-10-17T07:03:47.633Z,10.14
2022-10-17T07:08:50.541Z,10.32
2022-10-17T07:13:53.934Z,10.31
2022-10-17T07:18:56.926Z,10.38
2022-10-17T07:23:59.042Z,10.40
2022-10-17T07:29:02.019Z,10.25
2022-10-17T07:34:39.346Z,9.94
2022-10-17T07:39:43.583Z,9.72
2022-10-17T07:44:47.554Z,9.58
2022-10-17T07:49:50.327Z,9.58
2022-10-17T07:54:52.282Z,9.61
2022-10-17T07:59:54.655Z,9.70
2022-10-17T08:04:56.638Z,9.60
2022-10-17T08:09:58.630Z,9.37
2022-10-17T08:15:01.100Z,9.22
2022-10-17T08:20:03.729Z,9.18
2022-10-17T08:25:05.899Z,9.12
2022-10-17T08:30:08.514Z,9.13
2022-10-17T08:35:10.678Z,9.19
2022-10-17T08:40:19.471Z,9.33
2022-10-17T08:45:21.521Z,9.54
2022-10-17T08:50:42.127Z,9.83
2022-10-17T08:55:49.043Z,10.08
2022-10-17T09:01:00.085Z,10.08
2022-10-17T09:06:05.072Z,9.86
2022-10-17T09:11:15.891Z,9.30
2022-10-17T09:16:27.011Z,8.91
2022-10-17T09:21:41.396Z,8.72
2022-10-17T09:26:44.916Z,8.62
2022-10-17T09:32:02.602Z,8.51
2022-10-17T09:37:11.345Z,8.46
2022-10-17T09:42:15.454Z,8.56
2022-10-17T09:47:23.641Z,8.67
2022-10-17T09:52:28.684Z,8.72
2022-10-17T09:57:50.709Z,8.80
2022-10-17T10:03:08.306Z,8.83
2022-10-17T10:08:14.200Z,8.92
2022-10-17T10:13:17.934Z,8.91
2022-10-17T10:18:19.880Z,8.91
2022-10-17T10:23:22.734Z,9.00
2022-10-17T10:28:27.183Z,9.09
2022-10-17T10:33:29.922Z,9.09
2022-10-17T10:38:32.908Z,9.14
2022-10-17T10:43:38.025Z,9.21
2022-10-17T10:48:49.722Z,9.25
2022-10-17T10:53:54.899Z,9.29
2022-10-17T10:59:02.924Z,9.37
2022-10-17T11:04:20.146Z,9.45
2022-10-17T11:09:26.230Z,9.53
2022-10-17T11:14:43.341Z,9.53
2022-10-17T11:20:07.995Z,9.62
2022-10-17T11:25:25.247Z,9.60
2022-10-17T11:30:28.798Z,9.64
2022-10-17T11:35:36.674Z,9.73
2022-10-17T11:40:41.545Z,9.77
2022-10-17T11:45:45.823Z,9.73
2022-10-17T11:56:41.884Z,9.77
2022-10-17T12:01:56.070Z,9.83
2022-10-17T12:07:16.658Z,9.75
2022-10-17T12:12:29.682Z,9.82
2022-10-17T12:17:39.332Z,9.87
2022-10-17T12:22:47.105Z,9.82
2022-10-17T12:27:50.469Z,9.91
2022-10-17T12:33:05.661Z,9.95
2022-10-17T12:38:15.164Z,9.98
2022-10-17T12:43:17.139Z,9.93
2022-10-17T12:48:34.126Z,9.88
2022-10-17T12:53:56.781Z,9.90
2022-10-17T12:58:59.962Z,9.90
2022-10-17T13:04:05.847Z,9.95
2022-10-17T13:09:10.017Z,9.96
2022-10-17T13:14:13.435Z,9.97
2022-10-17T13:19:16.519Z,10.03
2022-10-17T13:24:38.246Z,10.01
2022-10-17T13:29:44.442Z,9.97
2022-10-17T13:34:46.311Z,10.00
2022-10-17T13:40:00.275Z,10.04
2022-10-17T13:45:14.468Z,10.06
2022-10-17T13:50:42.929Z,10.03
2022-10-17T13:56:23.208Z,10.07
2022-10-17T14:01:23.739Z,10.12
2022-10-17T14:06:27.346Z,10.12
2022-10-17T14:11:29.239Z,10.08
2022-10-17T14:16:36.526Z,10.14
2022-10-17T14:21:44.184Z,10.16
2022-10-17T14:26:51.130Z,10.10
2022-10-17T14:32:08.625Z,10.04
2022-10-17T14:37:24.672Z,10.03
2022-10-17T14:42:26.761Z,10.10
2022-10-17T14:47:43.060Z,10.09
2022-10-17T14:52:58.916Z,10.14
2022-10-17T14:58:01.741Z,10.15
2022-10-17T15:03:03.760Z,10.15
2022-10-17T15:08:06.634Z,10.13
2022-10-17T15:13:27.294Z,10.05
2022-10-17T15:18:29.800Z,10.07
2022-10-17T15:23:31.881Z,10.05
2022-10-17T15:28:33.830Z,10.08
2022-10-17T15:33:35.743Z,10.10
2022-10-17T15:38:37.608Z,10.14
2022-10-17T15:43:39.549Z,10.20
2022-10-17T15:48:41.571Z,10.30
2022-10-17T15:53:43.745Z,10.42
2022-10-17T15:58:45.711Z,10.47
2022-10-17T16:03:50.230Z,10.43
2022-10-17T16:08:52.079Z,10.38
2022-10-17T16:13:55.377Z,10.44
2022-10-17T16:18:57.541Z,10.53
2022-10-17T16:24:00.595Z,10.59
2022-10-17T16:29:04.761Z,10.61
2022-10-17T16:34:07.771Z,10.62
2022-10-17T16:39:09.744Z,10.55
2022-10-17T16:44:16.487Z,10.59
2022-10-17T16:49:18.421Z,10.67
2022-10-17T16:54:20.405Z,10.69
2022-10-17T16:59:24.281Z,10.66
2022-10-17T17:04:26.194Z,10.67
2022-10-17T17:09:28.203Z,10.64
2022-10-17T17:14:30.111Z,10.64
2022-10-17T17:19:31.998Z,10.70
2022-10-17T17:24:35.281Z,10.75
2022-10-17T17:29:37.803Z,10.66
2022-10-17T17:34:39.703Z,10.75
2022-10-17T17:39:43.002Z,10.71
2022-10-17T17:44:45.177Z,10.63
2022-10-17T17:49:47.083Z,10.65
2022-10-17T17:54:48.972Z,10.70
2022-10-17T17:59:52.871Z,10.79
2022-10-17T18:04:54.785Z,10.84
2022-10-17T18:09:57.125Z,10.83
2022-10-17T18:14:59.042Z,10.87
2022-10-17T18:20:01.786Z,10.89
2022-10-17T18:25:05.742Z,10.91
2022-10-17T18:30:08.632Z,10.92
2022-10-17T18:35:11.623Z,10.95
2022-10-17T18:40:13.560Z,10.92
2022-10-17T18:45:15.770Z,10.94
2022-10-17T18:50:17.697Z,10.95
2022-10-17T18:55:21.000Z,10.95
2022-10-17T19:00:22.967Z,10.91
2022-10-17T19:05:25.061Z,10.91
2022-10-17T19:10:27.039Z,10.88
2022-10-17T19:15:29.352Z,10.85
2022-10-17T19:20:31.303Z,10.81
2022-10-17T19:25:34.459Z,10.74
2022-10-17T19:30:36.362Z,10.68
2022-10-17T19:35:38.301Z,10.60
2022-10-17T19:40:40.648Z,10.52
2022-10-17T19:45:42.914Z,10.48
2022-10-17T19:50:45.071Z,10.44
2022-10-17T19:55:47.106Z,10.42
2022-10-17T20:00:50.098Z,10.42
2022-10-17T20:05:52.638Z,10.37
2022-10-17T20:10:54.598Z,10.31
2022-10-17T20:15:57.144Z,10.25
2022-10-17T20:21:05.708Z,10.20
2022-10-17T20:26:37.084Z,10.13
2022-10-17T20:31:32.219Z,10.07
2022-10-17T20:36:37.125Z,10.01
2022-10-17T20:41:39.608Z,9.91
2022-10-17T20:46:48.700Z,9.97
2022-10-17T20:52:02.517Z,9.97
2022-10-17T20:57:05.953Z,9.96
2022-10-17T21:02:11.184Z,9.92
2022-10-17T21:07:13.075Z,9.86
2022-10-17T21:12:25.855Z,9.84
2022-10-17T21:17:37.661Z,9.84
2022-10-17T21:22:39.822Z,9.82
2022-10-17T21:27:41.694Z,9.79
2022-10-17T21:32:51.845Z,9.72
2022-10-17T21:37:54.016Z,9.70
2022-10-17T21:42:55.883Z,9.68
2022-10-17T21:48:13.576Z,9.66
2022-10-17T21:53:15.621Z,9.63
2022-10-17T21:58:17.531Z,9.61
2022-10-17T22:03:19.424Z,9.61
2022-10-17T22:08:21.380Z,9.59
2022-10-17T22:13:23.373Z,9.60
2022-10-17T22:18:25.342Z,9.60
2022-10-17T22:23:27.311Z,9.58
2022-10-17T22:28:29.246Z,9.57
2022-10-17T22:33:38.310Z,9.57
2022-10-17T22:38:40.494Z,9.54
2022-10-17T22:43:42.442Z,9.56
2022-10-17T22:48:44.538Z,9.57
2022-10-17T22:53:46.520Z,9.59
2022-10-17T22:58:48.728Z,9.61
2022-10-17T23:03:51.460Z,9.65
2022-10-17T23:08:53.689Z,9.59
2022-10-17T23:13:55.570Z,9.78
2022-10-17T23:18:57.528Z,9.83
2022-10-17T23:23:59.451Z,9.86
2022-10-17T23:29:01.437Z,9.86
2022-10-17T23:34:03.508Z,9.87
2022-10-17T23:39:06.384Z,9.89
2022-10-17T23:44:09.931Z,9.89
2022-10-17T23:49:11.863Z,9.85
2022-10-17T23:54:13.844Z,9.81
2022-10-17T23:59:15.761Z,9.70
